Spirit Of New York — WCW9332 — position and weather

sailwx.info

Track history (hours):
 
Tides and Currents Weather Stations Pressure Air Temp Water Temp Dewpoint Dewpoint Depression Visibility Wind Speed Wind Dir Waves Ship Positions

Spirit Of New York

Owner: SPIRIT CRUISES LLC, NEW YORK, NY. More information available from US FCC via Universal Licensing System and Coast Guard Vessel Documentation Center.

Last reported at 2017-May-26 01:26 UTC. Time now 2017-May-26 16:53 UTC.
Position N 40°45' W 074°01'.

Length 62 m.

Type: Passenger vessel. MMSI: 338897000.

Date/timePositionNaut miles runAvg speedWind from/ knotsBaromVisibWave heightAir tempDewpointWater temp
2017-May-26 01:26N 40°45' W 074°01'1 2.5
2017-May-26 01:01N 40°44' W 074°01'3 5.9
2017-May-26 00:30N 40°41' W 074°03'2 3.8
2017-May-26 00:00N 40°42' W 074°00'3 5.4
2017-May-25 23:31N 40°45' W 074°01'0 0.8
2017-May-25 23:00N 40°45' W 074°01'0 0.0
2017-May-25 22:30N 40°45' W 074°01'0 0.0
2017-May-25 22:00N 40°45' W 074°01'0 0.0
2017-May-25 21:30N 40°45' W 074°01'0 0.0
2017-May-25 21:00N 40°45' W 074°01'0 0.0
2017-May-25 20:30N 40°45' W 074°01'0 0.0
2017-May-25 20:00N 40°45' W 074°01'0 0.0
2017-May-25 19:30N 40°45' W 074°01'0 0.0
2017-May-25 19:01N 40°45' W 074°01'0 0.0
2017-May-25 18:30N 40°45' W 074°01'0 0.0
2017-May-25 18:00N 40°45' W 074°01'2 3.6
2017-May-25 17:30N 40°43' W 074°01'2 4.4
2017-May-25 17:01N 40°41' W 074°03'5 9.4
2017-May-25 16:31N 40°46' W 074°01'1 1.7
2017-May-25 16:00N 40°45' W 074°01'0 0.0
2017-May-25 01:30N 40°45' W 074°01'2 4.0
2017-May-25 01:00N 40°43' W 074°01'1 2.4
2017-May-25 00:30N 40°42' W 074°01'1 2.9
2017-May-25 00:00N 40°43' W 074°01'3 5.1
2017-May-24 23:30N 40°46' W 074°01'1 1.7
2017-May-24 23:00N 40°45' W 074°01'0 0.0
2017-May-24 22:30N 40°45' W 074°01'0 0.0
2017-May-24 22:00N 40°45' W 074°01'0 0.0
2017-May-24 17:58N 40°45' W 074°01'2 3.4
2017-May-24 17:30N 40°43' W 074°01'2 5.0
2017-May-24 17:01N 40°41' W 074°03'4 7.4
2017-May-24 16:30N 40°45' W 074°01'0 1.0
2017-May-24 16:01N 40°45' W 074°01'0 0.0
2017-May-23 13:39N 40°45' W 074°01'0 1.3
2017-May-23 13:30N 40°45' W 074°01'3 6.8
2017-May-23 13:00N 40°42' W 074°02'2 4.6
2017-May-23 12:30N 40°44' W 074°01'1 2.3
2017-May-23 12:00N 40°45' W 074°01'0 0.0
2017-May-23 11:30N 40°45' W 074°01'0 0.0
2017-May-23 11:00N 40°45' W 074°01'0 0.0
2017-May-23 01:25N 40°45' W 074°01'1 2.8
2017-May-23 01:00N 40°44' W 074°01'3 5.8
2017-May-23 00:30N 40°41' W 074°03'2 3.1
2017-May-23 00:00N 40°42' W 074°01'3 6.7
2017-May-22 23:30N 40°45' W 074°01'0 0.7
2017-May-22 23:00N 40°45' W 074°01'0 0.0
2017-May-22 22:30N 40°45' W 074°01'0 0.0
2017-May-22 22:00N 40°45' W 074°01'0 0.0
2017-May-22 20:35N 40°45' W 074°01'0 0.1
2017-May-22 20:30N 40°45' W 074°01'0 0.0
2017-May-22 20:00N 40°45' W 074°01'0 0.0
2017-May-22 19:30N 40°45' W 074°01'0 0.0
2017-May-22 19:00N 40°45' W 074°01'0 0.0
2017-May-22 18:30N 40°45' W 074°01'0 0.0
2017-May-22 18:00N 40°45' W 074°01'1 2.8
2017-May-22 17:30N 40°44' W 074°01'3 5.4
2017-May-22 17:00N 40°41' W 074°03'2 4.1
2017-May-22 16:30N 40°43' W 074°01'2 4.0
2017-May-22 16:00N 40°45' W 074°01'0 0.0
2017-May-22 15:30N 40°45' W 074°01'0 0.0
2017-May-22 15:00N 40°45' W 074°01'0 0.0
2017-May-22 14:30N 40°45' W 074°01'0 0.0
2017-May-22 01:30N 40°45' W 074°01'2 3.3
2017-May-22 01:00N 40°43' W 074°01'2 4.1
2017-May-22 00:30N 40°41' W 074°02'1 3.0
2017-May-22 00:01N 40°43' W 074°01'3 6.6
2017-May-21 23:30N 40°46' W 074°00'1 2.3
2017-May-21 23:01N 40°45' W 074°01'0 0.0
2017-May-21 22:31N 40°45' W 074°01'0 0.0
2017-May-21 22:01N 40°45' W 074°01'0 0.0
2017-May-21 21:31N 40°45' W 074°01'0 0.0
2017-May-21 21:01N 40°45' W 074°01'0 0.0
2017-May-21 20:30N 40°45' W 074°01'0 0.0
2017-May-21 20:00N 40°45' W 074°01'0 0.0
2017-May-21 19:31N 40°45' W 074°01'0 0.0
2017-May-21 19:00N 40°45' W 074°01'0 0.0
2017-May-21 18:30N 40°45' W 074°01'0 0.0
2017-May-21 18:00N 40°45' W 074°01'2 3.4
2017-May-21 17:31N 40°43' W 074°01'2 4.2
2017-May-21 17:01N 40°41' W 074°02'1 2.8
2017-May-21 16:31N 40°43' W 074°01'2 4.8
2017-May-21 16:01N 40°45' W 074°01'0 0.0
2017-May-21 15:31N 40°45' W 074°01'0 0.0
2017-May-21 15:00N 40°45' W 074°01'0 0.0
2017-May-21 14:00N 40°45' W 074°01'0 0.0
2017-May-21 09:02N 40°45' W 074°01'0 0.1
2017-May-21 09:00N 40°45' W 074°01'1 1.5
2017-May-21 08:30N 40°46' W 074°01'0 0.0
2017-May-21 08:00N 40°46' W 074°01'2 3.1
2017-May-21 07:31N 40°44' W 074°01'3 5.1
2017-May-21 07:01N 40°42' W 074°02'3 5.4
2017-May-21 06:31N 40°43' W 073°59'2 3.3
2017-May-21 06:01N 40°44' W 073°58'3 6.2
2017-May-21 05:31N 40°42' W 074°01'3 6.6
2017-May-21 05:01N 40°46' W 074°01'0 0.2
2017-May-21 04:30N 40°46' W 074°01'0 0.0
2017-May-21 04:00N 40°46' W 074°01'0 0.0
2017-May-21 03:31N 40°46' W 074°01'1 1.6
2017-May-21 03:00N 40°45' W 074°01'0 0.0
2017-May-21 02:30N 40°45' W 074°01'0 0.0
2017-May-21 02:00N 40°45' W 074°01'1 1.0
2017-May-21 01:30N 40°44' W 074°01'3 5.9
2017-May-21 01:01N 40°42' W 074°02'2 3.2
2017-May-21 00:31N 40°42' W 073°60'1 1.6
2017-May-21 00:01N 40°42' W 074°01'4 7.6
2017-May-20 23:31N 40°46' W 074°01'1 1.4
2017-May-20 23:00N 40°45' W 074°01'0 0.0
2017-May-20 22:30N 40°45' W 074°01'0 0.0
2017-May-20 22:00N 40°45' W 074°01'0 0.0
2017-May-20 21:31N 40°45' W 074°01'0 0.0
2017-May-20 21:01N 40°45' W 074°01'0 0.0
2017-May-20 20:30N 40°45' W 074°01'0 0.0
2017-May-20 20:01N 40°45' W 074°01'0 0.0
2017-May-20 19:30N 40°45' W 074°01'0 0.0
2017-May-20 19:00N 40°45' W 074°01'0 0.0
2017-May-20 18:30N 40°45' W 074°01'0 0.0
2017-May-20 18:00N 40°45' W 074°01'1 3.0
2017-May-20 17:30N 40°43' W 074°01'2 4.9
2017-May-20 17:01N 40°41' W 074°02'2 3.4
2017-May-20 16:31N 40°43' W 074°01'2 4.4
2017-May-20 16:00N 40°45' W 074°01'0 0.0
2017-May-20 15:30N 40°45' W 074°01'0 0.0
2017-May-20 15:00N 40°45' W 074°01'0 0.0
2017-May-20 01:27N 40°45' W 074°01'1 2.9
2017-May-20 01:00N 40°44' W 074°01'3 5.2
2017-May-20 00:31N 40°41' W 074°02'2 4.3
2017-May-20 00:01N 40°42' W 073°60'2 4.6
2017-May-19 23:30N 40°44' W 074°01'0 1.0
2017-May-19 23:00N 40°45' W 074°01'0 0.0
2017-May-19 22:30N 40°45' W 074°01'0 0.0
2017-May-19 22:00N 40°45' W 074°01'0 0.0
2017-May-19 21:30N 40°45' W 074°01'0 0.0
2017-May-19 21:00N 40°45' W 074°01'0 0.0
2017-May-19 20:30N 40°45' W 074°01'0 0.0
2017-May-19 20:00N 40°45' W 074°01'0 0.0
2017-May-19 19:30N 40°45' W 074°01'0 0.0
2017-May-19 19:00N 40°45' W 074°01'0 0.0
2017-May-19 18:30N 40°45' W 074°01'0 0.0
2017-May-19 18:00N 40°45' W 074°01'1 2.0
2017-May-19 17:31N 40°44' W 074°01'3 6.0
2017-May-19 17:01N 40°41' W 074°02'2 3.6
2017-May-19 16:31N 40°43' W 074°01'2 4.4
2017-May-19 16:01N 40°45' W 074°01'0 0.0
2017-May-19 01:25N 40°45' W 074°01'1 2.5
2017-May-19 01:00N 40°44' W 074°01'3 5.2
2017-May-19 00:30N 40°41' W 074°02'2 3.5
2017-May-19 00:00N 40°42' W 074°00'3 5.3
2017-May-18 23:30N 40°45' W 074°01'0 0.6
2017-May-18 23:00N 40°45' W 074°01'0 0.0
2017-May-18 22:30N 40°45' W 074°01'0 0.0
2017-May-18 22:00N 40°45' W 074°01'0 0.0
2017-May-18 21:30N 40°45' W 074°01'0 0.0
2017-May-18 21:00N 40°45' W 074°01'0 0.0
2017-May-18 01:46N 40°45' W 074°01'0 0.0
2017-May-18 01:30N 40°45' W 074°01'1 3.0
2017-May-18 01:00N 40°44' W 074°01'2 4.7
2017-May-18 00:30N 40°41' W 074°02'2 3.1
2017-May-18 00:00N 40°42' W 074°01'4 7.9
2017-May-17 23:30N 40°46' W 074°01'1 1.8
2017-May-17 23:00N 40°45' W 074°01'0 0.0
2017-May-17 18:17N 40°45' W 074°01'0 0.0
2017-May-17 18:00N 40°45' W 074°01'1 2.0
2017-May-17 17:30N 40°44' W 074°01'3 6.1
2017-May-17 17:00N 40°41' W 074°03'2 3.0
2017-May-17 16:30N 40°42' W 074°01'3 5.9
2017-May-17 16:00N 40°45' W 074°01'0 0.0
2017-May-17 15:30N 40°45' W 074°01'0 0.0
2017-May-17 15:00N 40°45' W 074°01'0 0.0
2017-May-17 01:29N 40°45' W 074°01'1 2.9
2017-May-17 01:00N 40°44' W 074°01'3 5.4
2017-May-17 00:31N 40°41' W 074°03'2 4.5
2017-May-17 00:01N 40°42' W 073°60'4 7.0
2017-May-16 23:31N 40°46' W 074°01'1 1.6
2017-May-16 23:00N 40°45' W 074°01'0 0.0
2017-May-16 16:21N 40°45' W 074°01'1 3.1
2017-May-16 16:00N 40°44' W 074°01'1 0.4
2017-May-16 13:26N 40°45' W 074°01'0 0.0
2017-May-16 13:00N 40°45' W 074°01'  
Track history (hours):
 
Tides and Currents Weather Stations Pressure Air Temp Water Temp Dewpoint Dewpoint Depression Visibility Wind Speed Wind Dir Waves Ship Positions

Spirit Of New York

Owner: SPIRIT CRUISES LLC, NEW YORK, NY. More information available from US FCC via Universal Licensing System and Coast Guard Vessel Documentation Center.

Last reported at 2017-May-26 01:26 UTC. Time now 2017-May-26 16:53 UTC.
Position N 40°45' W 074°01'.

Length 62 m.

Type: Passenger vessel. MMSI: 338897000.

Date/timePositionNaut miles runAvg speedWind from/ knotsBaromVisibWave heightAir tempDewpointWater temp
2017-May-26 01:26N 40°45' W 074°01'1 2.5
2017-May-26 01:01N 40°44' W 074°01'3 5.9
2017-May-26 00:30N 40°41' W 074°03'2 3.8
2017-May-26 00:00N 40°42' W 074°00'3 5.4
2017-May-25 23:31N 40°45' W 074°01'0 0.8
2017-May-25 23:00N 40°45' W 074°01'0 0.0
2017-May-25 22:30N 40°45' W 074°01'0 0.0
2017-May-25 22:00N 40°45' W 074°01'0 0.0
2017-May-25 21:30N 40°45' W 074°01'0 0.0
2017-May-25 21:00N 40°45' W 074°01'0 0.0
2017-May-25 20:30N 40°45' W 074°01'0 0.0
2017-May-25 20:00N 40°45' W 074°01'0 0.0
2017-May-25 19:30N 40°45' W 074°01'0 0.0
2017-May-25 19:01N 40°45' W 074°01'0 0.0
2017-May-25 18:30N 40°45' W 074°01'0 0.0
2017-May-25 18:00N 40°45' W 074°01'2 3.6
2017-May-25 17:30N 40°43' W 074°01'2 4.4
2017-May-25 17:01N 40°41' W 074°03'5 9.4
2017-May-25 16:31N 40°46' W 074°01'1 1.7
2017-May-25 16:00N 40°45' W 074°01'0 0.0
2017-May-25 01:30N 40°45' W 074°01'2 4.0
2017-May-25 01:00N 40°43' W 074°01'1 2.4
2017-May-25 00:30N 40°42' W 074°01'1 2.9
2017-May-25 00:00N 40°43' W 074°01'3 5.1
2017-May-24 23:30N 40°46' W 074°01'1 1.7
2017-May-24 23:00N 40°45' W 074°01'0 0.0
2017-May-24 22:30N 40°45' W 074°01'0 0.0
2017-May-24 22:00N 40°45' W 074°01'0 0.0
2017-May-24 17:58N 40°45' W 074°01'2 3.4
2017-May-24 17:30N 40°43' W 074°01'2 5.0
2017-May-24 17:01N 40°41' W 074°03'4 7.4
2017-May-24 16:30N 40°45' W 074°01'0 1.0
2017-May-24 16:01N 40°45' W 074°01'0 0.0
2017-May-23 13:39N 40°45' W 074°01'0 1.3
2017-May-23 13:30N 40°45' W 074°01'3 6.8
2017-May-23 13:00N 40°42' W 074°02'2 4.6
2017-May-23 12:30N 40°44' W 074°01'1 2.3
2017-May-23 12:00N 40°45' W 074°01'0 0.0
2017-May-23 11:30N 40°45' W 074°01'0 0.0
2017-May-23 11:00N 40°45' W 074°01'0 0.0
2017-May-23 01:25N 40°45' W 074°01'1 2.8
2017-May-23 01:00N 40°44' W 074°01'3 5.8
2017-May-23 00:30N 40°41' W 074°03'2 3.1
2017-May-23 00:00N 40°42' W 074°01'3 6.7
2017-May-22 23:30N 40°45' W 074°01'0 0.7
2017-May-22 23:00N 40°45' W 074°01'0 0.0
2017-May-22 22:30N 40°45' W 074°01'0 0.0
2017-May-22 22:00N 40°45' W 074°01'0 0.0
2017-May-22 20:35N 40°45' W 074°01'0 0.1
2017-May-22 20:30N 40°45' W 074°01'0 0.0
2017-May-22 20:00N 40°45' W 074°01'0 0.0
2017-May-22 19:30N 40°45' W 074°01'0 0.0
2017-May-22 19:00N 40°45' W 074°01'0 0.0
2017-May-22 18:30N 40°45' W 074°01'0 0.0
2017-May-22 18:00N 40°45' W 074°01'1 2.8
2017-May-22 17:30N 40°44' W 074°01'3 5.4
2017-May-22 17:00N 40°41' W 074°03'2 4.1
2017-May-22 16:30N 40°43' W 074°01'2 4.0
2017-May-22 16:00N 40°45' W 074°01'0 0.0
2017-May-22 15:30N 40°45' W 074°01'0 0.0
2017-May-22 15:00N 40°45' W 074°01'0 0.0
2017-May-22 14:30N 40°45' W 074°01'0 0.0
2017-May-22 01:30N 40°45' W 074°01'2 3.3
2017-May-22 01:00N 40°43' W 074°01'2 4.1
2017-May-22 00:30N 40°41' W 074°02'1 3.0
2017-May-22 00:01N 40°43' W 074°01'3 6.6
2017-May-21 23:30N 40°46' W 074°00'1 2.3
2017-May-21 23:01N 40°45' W 074°01'0 0.0
2017-May-21 22:31N 40°45' W 074°01'0 0.0
2017-May-21 22:01N 40°45' W 074°01'0 0.0
2017-May-21 21:31N 40°45' W 074°01'0 0.0
2017-May-21 21:01N 40°45' W 074°01'0 0.0
2017-May-21 20:30N 40°45' W 074°01'0 0.0
2017-May-21 20:00N 40°45' W 074°01'0 0.0
2017-May-21 19:31N 40°45' W 074°01'0 0.0
2017-May-21 19:00N 40°45' W 074°01'0 0.0
2017-May-21 18:30N 40°45' W 074°01'0 0.0
2017-May-21 18:00N 40°45' W 074°01'2 3.4
2017-May-21 17:31N 40°43' W 074°01'2 4.2
2017-May-21 17:01N 40°41' W 074°02'1 2.8
2017-May-21 16:31N 40°43' W 074°01'2 4.8
2017-May-21 16:01N 40°45' W 074°01'0 0.0
2017-May-21 15:31N 40°45' W 074°01'0 0.0
2017-May-21 15:00N 40°45' W 074°01'0 0.0
2017-May-21 14:00N 40°45' W 074°01'0 0.0
2017-May-21 09:02N 40°45' W 074°01'0 0.1
2017-May-21 09:00N 40°45' W 074°01'1 1.5
2017-May-21 08:30N 40°46' W 074°01'0 0.0
2017-May-21 08:00N 40°46' W 074°01'2 3.1
2017-May-21 07:31N 40°44' W 074°01'3 5.1
2017-May-21 07:01N 40°42' W 074°02'3 5.4
2017-May-21 06:31N 40°43' W 073°59'2 3.3
2017-May-21 06:01N 40°44' W 073°58'3 6.2
2017-May-21 05:31N 40°42' W 074°01'3 6.6
2017-May-21 05:01N 40°46' W 074°01'0 0.2
2017-May-21 04:30N 40°46' W 074°01'0 0.0
2017-May-21 04:00N 40°46' W 074°01'0 0.0
2017-May-21 03:31N 40°46' W 074°01'1 1.6
2017-May-21 03:00N 40°45' W 074°01'0 0.0
2017-May-21 02:30N 40°45' W 074°01'0 0.0
2017-May-21 02:00N 40°45' W 074°01'1 1.0
2017-May-21 01:30N 40°44' W 074°01'3 5.9
2017-May-21 01:01N 40°42' W 074°02'2 3.2
2017-May-21 00:31N 40°42' W 073°60'1 1.6
2017-May-21 00:01N 40°42' W 074°01'4 7.6
2017-May-20 23:31N 40°46' W 074°01'1 1.4
2017-May-20 23:00N 40°45' W 074°01'0 0.0
2017-May-20 22:30N 40°45' W 074°01'0 0.0
2017-May-20 22:00N 40°45' W 074°01'0 0.0
2017-May-20 21:31N 40°45' W 074°01'0 0.0
2017-May-20 21:01N 40°45' W 074°01'0 0.0
2017-May-20 20:30N 40°45' W 074°01'0 0.0
2017-May-20 20:01N 40°45' W 074°01'0 0.0
2017-May-20 19:30N 40°45' W 074°01'0 0.0
2017-May-20 19:00N 40°45' W 074°01'0 0.0
2017-May-20 18:30N 40°45' W 074°01'0 0.0
2017-May-20 18:00N 40°45' W 074°01'1 3.0
2017-May-20 17:30N 40°43' W 074°01'2 4.9
2017-May-20 17:01N 40°41' W 074°02'2 3.4
2017-May-20 16:31N 40°43' W 074°01'2 4.4
2017-May-20 16:00N 40°45' W 074°01'0 0.0
2017-May-20 15:30N 40°45' W 074°01'0 0.0
2017-May-20 15:00N 40°45' W 074°01'0 0.0
2017-May-20 01:27N 40°45' W 074°01'1 2.9
2017-May-20 01:00N 40°44' W 074°01'3 5.2
2017-May-20 00:31N 40°41' W 074°02'2 4.3
2017-May-20 00:01N 40°42' W 073°60'2 4.6
2017-May-19 23:30N 40°44' W 074°01'0 1.0
2017-May-19 23:00N 40°45' W 074°01'0 0.0
2017-May-19 22:30N 40°45' W 074°01'0 0.0
2017-May-19 22:00N 40°45' W 074°01'0 0.0
2017-May-19 21:30N 40°45' W 074°01'0 0.0
2017-May-19 21:00N 40°45' W 074°01'0 0.0
2017-May-19 20:30N 40°45' W 074°01'0 0.0
2017-May-19 20:00N 40°45' W 074°01'0 0.0
2017-May-19 19:30N 40°45' W 074°01'0 0.0
2017-May-19 19:00N 40°45' W 074°01'0 0.0
2017-May-19 18:30N 40°45' W 074°01'0 0.0
2017-May-19 18:00N 40°45' W 074°01'1 2.0
2017-May-19 17:31N 40°44' W 074°01'3 6.0
2017-May-19 17:01N 40°41' W 074°02'2 3.6
2017-May-19 16:31N 40°43' W 074°01'2 4.4
2017-May-19 16:01N 40°45' W 074°01'0 0.0
2017-May-19 01:25N 40°45' W 074°01'1 2.5
2017-May-19 01:00N 40°44' W 074°01'3 5.2
2017-May-19 00:30N 40°41' W 074°02'2 3.5
2017-May-19 00:00N 40°42' W 074°00'3 5.3
2017-May-18 23:30N 40°45' W 074°01'0 0.6
2017-May-18 23:00N 40°45' W 074°01'0 0.0
2017-May-18 22:30N 40°45' W 074°01'0 0.0
2017-May-18 22:00N 40°45' W 074°01'0 0.0
2017-May-18 21:30N 40°45' W 074°01'0 0.0
2017-May-18 21:00N 40°45' W 074°01'0 0.0
2017-May-18 01:46N 40°45' W 074°01'0 0.0
2017-May-18 01:30N 40°45' W 074°01'1 3.0
2017-May-18 01:00N 40°44' W 074°01'2 4.7
2017-May-18 00:30N 40°41' W 074°02'2 3.1
2017-May-18 00:00N 40°42' W 074°01'4 7.9
2017-May-17 23:30N 40°46' W 074°01'1 1.8
2017-May-17 23:00N 40°45' W 074°01'0 0.0
2017-May-17 18:17N 40°45' W 074°01'0 0.0
2017-May-17 18:00N 40°45' W 074°01'1 2.0
2017-May-17 17:30N 40°44' W 074°01'3 6.1
2017-May-17 17:00N 40°41' W 074°03'2 3.0
2017-May-17 16:30N 40°42' W 074°01'3 5.9
2017-May-17 16:00N 40°45' W 074°01'0 0.0
2017-May-17 15:30N 40°45' W 074°01'0 0.0
2017-May-17 15:00N 40°45' W 074°01'0 0.0
2017-May-17 01:29N 40°45' W 074°01'1 2.9
2017-May-17 01:00N 40°44' W 074°01'3 5.4
2017-May-17 00:31N 40°41' W 074°03'2 4.5
2017-May-17 00:01N 40°42' W 073°60'4 7.0
2017-May-16 23:31N 40°46' W 074°01'1 1.6
2017-May-16 23:00N 40°45' W 074°01'0 0.0
2017-May-16 16:21N 40°45' W 074°01'1 3.1
2017-May-16 16:00N 40°44' W 074°01'1 0.4
2017-May-16 13:26N 40°45' W 074°01'0 0.0
2017-May-16 13:00N 40°45' W 074°01'  

Dump ship's entire track history